createdAt,value
2022-11-07T00:00:27.464Z,51.91
2022-11-07T00:02:54.081Z,51.97
2022-11-07T00:05:20.726Z,51.64
2022-11-07T00:07:47.275Z,51.59
2022-11-07T00:10:13.917Z,51.46
2022-11-07T00:12:40.447Z,51.31
2022-11-07T00:15:07.362Z,51.54
2022-11-07T00:17:33.920Z,51.57
2022-11-07T00:20:00.453Z,51.64
2022-11-07T00:22:27.024Z,51.61
2022-11-07T00:24:53.617Z,51.58
2022-11-07T00:27:20.230Z,51.60
2022-11-07T00:29:46.863Z,51.48
2022-11-07T00:32:13.476Z,51.53
2022-11-07T00:34:40.010Z,51.29
2022-11-07T00:37:06.596Z,51.76
2022-11-07T00:39:33.373Z,51.57
2022-11-07T00:41:59.890Z,51.45
2022-11-07T00:44:26.431Z,51.11
2022-11-07T00:46:52.959Z,51.51
2022-11-07T00:49:19.547Z,51.71
2022-11-07T00:51:46.099Z,51.42
2022-11-07T00:54:12.854Z,51.50
2022-11-07T00:56:39.503Z,51.62
2022-11-07T00:59:06.230Z,51.13
2022-11-07T01:01:33.706Z,51.44
2022-11-07T01:04:19.126Z,51.42
2022-11-07T01:06:46.741Z,51.61
2022-11-07T01:09:18.976Z,51.21
2022-11-07T01:11:45.921Z,51.37
2022-11-07T01:14:14.566Z,51.14
2022-11-07T01:16:41.988Z,51.37
2022-11-07T01:19:09.173Z,51.20
2022-11-07T01:21:38.508Z,51.31
2022-11-07T01:24:06.428Z,51.23
2022-11-07T01:26:32.981Z,51.29
2022-11-07T01:28:59.667Z,51.20
2022-11-07T01:31:26.285Z,51.42
2022-11-07T01:33:52.823Z,51.09
2022-11-07T01:36:19.418Z,51.00
2022-11-07T01:38:48.552Z,51.21
2022-11-07T01:41:21.894Z,51.31
2022-11-07T01:44:06.401Z,51.17
2022-11-07T01:46:44.987Z,51.20
2022-11-07T01:49:18.429Z,51.05
2022-11-07T01:51:46.292Z,51.24
2022-11-07T01:54:13.468Z,50.98
2022-11-07T01:56:41.952Z,50.88
2022-11-07T01:59:09.465Z,51.07
2022-11-07T02:01:36.374Z,50.90
2022-11-07T02:04:03.787Z,51.05
2022-11-07T02:06:42.323Z,50.94
2022-11-07T02:09:09.320Z,51.03
2022-11-07T02:11:36.205Z,51.04
2022-11-07T02:14:02.804Z,51.16
2022-11-07T02:16:29.582Z,51.11
2022-11-07T02:18:56.457Z,50.92
2022-11-07T02:21:30.700Z,51.22
2022-11-07T02:24:06.663Z,51.02
2022-11-07T02:26:34.390Z,51.33
2022-11-07T02:29:02.526Z,51.38
2022-11-07T02:31:29.097Z,51.35
2022-11-07T02:33:55.662Z,51.21
2022-11-07T02:36:23.208Z,51.19
2022-11-07T02:38:57.410Z,50.74
2022-11-07T02:41:27.752Z,51.43
2022-11-07T02:43:58.919Z,51.00
2022-11-07T02:46:27.539Z,50.70
2022-11-07T02:48:59.043Z,50.94
2022-11-07T02:51:25.974Z,51.29
2022-11-07T02:53:53.030Z,51.21
2022-11-07T02:56:19.692Z,51.15
2022-11-07T02:58:46.367Z,51.08
2022-11-07T03:01:13.717Z,51.15
2022-11-07T03:03:43.490Z,51.22
2022-11-07T03:06:12.642Z,50.92
2022-11-07T03:08:39.360Z,51.07
2022-11-07T03:11:06.691Z,50.98
2022-11-07T03:13:33.328Z,50.95
2022-11-07T03:15:59.873Z,50.93
2022-11-07T03:18:27.006Z,50.89
2022-11-07T03:20:53.549Z,51.01
2022-11-07T03:23:20.089Z,51.24
2022-11-07T03:25:46.644Z,50.69
2022-11-07T03:28:13.197Z,51.17
2022-11-07T03:30:39.737Z,50.97
2022-11-07T03:33:06.593Z,51.12
2022-11-07T03:35:33.120Z,50.81
2022-11-07T03:37:59.682Z,50.93
2022-11-07T03:40:26.230Z,50.92
2022-11-07T03:42:52.861Z,51.30
2022-11-07T03:45:19.729Z,51.03
2022-11-07T03:47:46.540Z,50.83
2022-11-07T03:50:18.789Z,50.70
2022-11-07T03:52:45.679Z,51.10
2022-11-07T03:55:12.685Z,51.15
2022-11-07T03:57:39.277Z,51.16
2022-11-07T04:00:07.267Z,50.88
2022-11-07T04:02:33.999Z,50.77
2022-11-07T04:05:00.685Z,50.97
2022-11-07T04:07:27.278Z,50.90
2022-11-07T04:09:53.825Z,51.03
2022-11-07T04:12:38.574Z,51.25
2022-11-07T04:15:23.945Z,51.28
2022-11-07T04:17:50.501Z,51.00
2022-11-07T04:20:17.056Z,51.23
2022-11-07T04:22:43.602Z,50.92
2022-11-07T04:25:10.333Z,50.96
2022-11-07T04:27:42.424Z,50.96
2022-11-07T04:30:19.829Z,51.15
2022-11-07T04:32:47.626Z,50.62
2022-11-07T04:35:14.680Z,50.67
2022-11-07T04:37:41.721Z,51.06
2022-11-07T04:40:09.598Z,50.98
2022-11-07T04:42:36.326Z,50.75
2022-11-07T04:45:03.041Z,51.17
2022-11-07T04:47:29.609Z,50.78
2022-11-07T04:49:56.196Z,50.71
2022-11-07T04:52:22.756Z,50.93
2022-11-07T04:54:49.308Z,50.77
2022-11-07T04:57:15.859Z,51.03
2022-11-07T04:59:42.402Z,50.63
2022-11-07T05:02:12.606Z,50.78
2022-11-07T05:04:39.975Z,50.61
2022-11-07T05:07:07.444Z,50.56
2022-11-07T05:09:34.618Z,50.44
2022-11-07T05:12:02.998Z,50.85
2022-11-07T05:14:31.169Z,50.63
2022-11-07T05:16:57.909Z,50.86
2022-11-07T05:19:24.505Z,51.00
2022-11-07T05:22:14.009Z,51.15
2022-11-07T05:24:40.568Z,50.92
2022-11-07T05:27:07.245Z,50.93
2022-11-07T05:29:33.781Z,51.02
2022-11-07T05:32:00.345Z,50.82
2022-11-07T05:34:26.937Z,50.95
2022-11-07T05:36:53.492Z,50.79
2022-11-07T05:39:20.476Z,51.02
2022-11-07T05:41:47.018Z,50.97
2022-11-07T05:44:13.574Z,50.83
2022-11-07T05:46:40.118Z,50.85
2022-11-07T05:49:06.761Z,50.43
2022-11-07T05:51:33.372Z,50.49
2022-11-07T05:53:59.944Z,50.85
2022-11-07T05:56:26.485Z,50.93
2022-11-07T05:58:53.027Z,50.98
2022-11-07T06:01:19.580Z,50.74
2022-11-07T06:03:46.140Z,50.96
2022-11-07T06:06:12.681Z,50.86
2022-11-07T06:08:39.217Z,50.74
2022-11-07T06:11:06.154Z,50.66
2022-11-07T06:13:32.721Z,51.03
2022-11-07T06:15:59.261Z,50.93
2022-11-07T06:18:25.820Z,50.84
2022-11-07T06:20:52.508Z,50.93
2022-11-07T06:23:20.057Z,50.78
2022-11-07T06:25:47.017Z,50.89
2022-11-07T06:28:14.823Z,51.04
2022-11-07T06:30:41.943Z,50.72
2022-11-07T06:33:12.050Z,50.80
2022-11-07T06:35:38.738Z,51.00
2022-11-07T06:38:07.448Z,51.23
2022-11-07T06:40:34.145Z,50.77
2022-11-07T06:43:26.896Z,50.80
2022-11-07T06:45:53.457Z,50.88
2022-11-07T06:48:19.989Z,51.00
2022-11-07T06:50:46.532Z,50.87
2022-11-07T06:53:14.499Z,51.06
2022-11-07T06:55:41.420Z,50.93
2022-11-07T06:58:07.995Z,50.93
2022-11-07T07:00:37.375Z,50.62
2022-11-07T07:03:04.920Z,51.01
2022-11-07T07:05:33.291Z,51.12
2022-11-07T07:07:59.870Z,51.08
2022-11-07T07:10:26.624Z,50.79
2022-11-07T07:12:54.688Z,50.68
2022-11-07T07:15:21.581Z,50.78
2022-11-07T07:17:48.477Z,50.88
2022-11-07T07:20:15.087Z,50.98
2022-11-07T07:22:41.629Z,50.95
2022-11-07T07:25:08.943Z,50.73
2022-11-07T07:27:35.492Z,50.91
2022-11-07T07:30:02.034Z,50.67
2022-11-07T07:32:28.589Z,50.91
2022-11-07T07:34:55.129Z,50.84
2022-11-07T07:37:21.732Z,50.99
2022-11-07T07:39:48.329Z,51.05
2022-11-07T07:42:14.868Z,50.95
2022-11-07T07:44:41.410Z,50.81
2022-11-07T07:47:11.322Z,50.96
2022-11-07T07:49:38.308Z,50.91
2022-11-07T07:52:05.214Z,50.86
2022-11-07T07:54:31.860Z,51.53
2022-11-07T07:56:58.421Z,54.83
2022-11-07T07:59:24.966Z,55.47
2022-11-07T08:01:56.590Z,55.45
2022-11-07T08:04:23.881Z,55.47
2022-11-07T08:06:50.425Z,55.31
2022-11-07T08:09:16.997Z,55.57
2022-11-07T08:11:43.617Z,55.60
2022-11-07T08:14:11.589Z,55.38
2022-11-07T08:16:38.197Z,55.17
2022-11-07T08:19:04.748Z,55.26
2022-11-07T08:21:31.375Z,55.28
2022-11-07T08:23:58.024Z,54.96
2022-11-07T08:26:24.649Z,55.39
2022-11-07T08:28:53.688Z,55.80
2022-11-07T08:31:20.264Z,55.75
2022-11-07T08:33:46.862Z,55.50
2022-11-07T08:36:13.472Z,55.62
2022-11-07T08:38:40.022Z,55.61
2022-11-07T08:41:06.633Z,55.34
2022-11-07T08:43:33.233Z,55.32
2022-11-07T08:45:59.902Z,55.30
2022-11-07T08:48:26.472Z,55.05
2022-11-07T08:50:54.649Z,55.35
2022-11-07T08:53:21.974Z,55.62
2022-11-07T08:55:48.627Z,55.61
2022-11-07T08:58:15.484Z,55.04
2022-11-07T09:00:42.249Z,55.00
2022-11-07T09:03:44.406Z,54.79
2022-11-07T09:05:56.682Z,54.53
2022-11-07T09:08:23.378Z,54.67
2022-11-07T09:10:50.262Z,54.49
2022-11-07T09:13:17.421Z,54.33
2022-11-07T09:15:50.329Z,54.73
2022-11-07T09:18:17.843Z,54.96
2022-11-07T09:20:44.397Z,55.33
2022-11-07T09:23:10.942Z,55.82
2022-11-07T09:25:37.514Z,55.55
2022-11-07T09:28:04.467Z,55.62
2022-11-07T09:30:31.544Z,55.96
2022-11-07T09:32:58.338Z,55.60
2022-11-07T09:35:25.079Z,55.73
2022-11-07T09:37:51.843Z,55.33
2022-11-07T09:40:29.937Z,54.98
2022-11-07T09:43:39.968Z,54.47
2022-11-07T09:46:43.980Z,54.80
2022-11-07T09:49:27.726Z,54.60
2022-11-07T09:51:55.574Z,54.46
2022-11-07T09:54:25.683Z,54.72
2022-11-07T09:56:52.990Z,54.50
2022-11-07T09:59:32.634Z,54.32
2022-11-07T10:01:59.195Z,54.25
2022-11-07T10:04:26.806Z,54.44
2022-11-07T10:07:04.653Z,54.06
2022-11-07T10:09:59.329Z,53.94
2022-11-07T10:12:49.578Z,53.95
2022-11-07T10:15:28.417Z,54.24
2022-11-07T10:18:15.297Z,54.30
2022-11-07T10:21:16.062Z,53.79
2022-11-07T10:23:54.199Z,54.39
2022-11-07T10:26:22.581Z,54.87
2022-11-07T10:29:15.387Z,54.31
2022-11-07T10:31:46.907Z,54.26
2022-11-07T10:34:31.625Z,53.79
2022-11-07T10:36:58.165Z,53.93
2022-11-07T10:39:24.713Z,53.63
2022-11-07T10:42:00.844Z,53.81
2022-11-07T10:44:29.281Z,53.71
2022-11-07T10:46:55.841Z,53.63
2022-11-07T10:49:23.940Z,53.74
2022-11-07T10:51:51.600Z,53.66
2022-11-07T10:54:26.324Z,53.37
2022-11-07T10:57:11.522Z,53.33
2022-11-07T10:59:41.131Z,53.18
2022-11-07T11:02:22.142Z,53.56
2022-11-07T11:05:00.375Z,52.92
2022-11-07T11:07:34.832Z,52.96
2022-11-07T11:10:01.639Z,53.17
2022-11-07T11:12:34.118Z,53.18
2022-11-07T11:15:14.776Z,53.30
2022-11-07T11:17:41.774Z,53.28
2022-11-07T11:20:31.758Z,53.28
2022-11-07T11:22:59.926Z,53.44
2022-11-07T11:25:26.639Z,53.46
2022-11-07T11:27:56.979Z,53.54
2022-11-07T11:30:24.364Z,53.39
2022-11-07T11:33:03.568Z,53.29
2022-11-07T11:35:42.349Z,53.58
2022-11-07T11:38:17.605Z,54.11
2022-11-07T11:40:48.750Z,54.21
2022-11-07T11:43:22.376Z,54.01
2022-11-07T11:46:05.246Z,53.33
2022-11-07T11:48:54.194Z,53.15
2022-11-07T11:51:52.958Z,53.14
2022-11-07T11:54:19.501Z,53.13
2022-11-07T11:56:58.093Z,53.12
2022-11-07T11:59:24.588Z,53.38
2022-11-07T12:02:15.243Z,53.10
2022-11-07T12:04:44.744Z,52.97
2022-11-07T12:07:32.249Z,53.00
2022-11-07T12:10:20.801Z,52.78
2022-11-07T12:13:10.520Z,52.58
2022-11-07T12:15:39.700Z,52.50
2022-11-07T12:18:38.276Z,52.73
2022-11-07T12:21:31.138Z,52.70
2022-11-07T12:24:23.035Z,52.63
2022-11-07T12:27:36.137Z,52.57
2022-11-07T12:30:27.506Z,52.38
2022-11-07T12:33:06.161Z,52.13
2022-11-07T12:35:38.618Z,52.52
2022-11-07T12:38:29.240Z,52.07
2022-11-07T12:41:13.896Z,52.50
2022-11-07T12:43:56.235Z,52.27
2022-11-07T12:46:45.892Z,52.25
2022-11-07T12:49:30.921Z,52.26
2022-11-07T12:52:34.361Z,52.33
2022-11-07T12:55:23.768Z,52.28
2022-11-07T12:57:53.013Z,52.56
2022-11-07T13:00:29.669Z,52.22
2022-11-07T13:03:16.860Z,52.38
2022-11-07T13:06:00.074Z,52.30
2022-11-07T13:08:35.219Z,52.33
2022-11-07T13:11:15.022Z,52.29
2022-11-07T13:14:23.925Z,52.19
2022-11-07T13:16:52.096Z,52.43
2022-11-07T13:19:33.697Z,52.31
2022-11-07T13:22:05.398Z,52.28
2022-11-07T13:24:33.645Z,52.41
2022-11-07T13:27:00.224Z,52.18
2022-11-07T13:29:37.719Z,52.18
2022-11-07T13:32:06.105Z,52.25
2022-11-07T13:34:58.040Z,52.11
2022-11-07T13:37:36.919Z,52.12
2022-11-07T13:40:26.319Z,52.09
2022-11-07T13:42:58.005Z,52.35
2022-11-07T13:45:31.905Z,52.30
2022-11-07T13:48:01.207Z,52.23
2022-11-07T13:50:39.439Z,52.16
2022-11-07T13:53:13.081Z,52.32
2022-11-07T13:55:50.582Z,52.34
2022-11-07T13:58:17.640Z,52.46
2022-11-07T14:00:44.414Z,52.23
2022-11-07T14:03:26.313Z,52.09
2022-11-07T14:05:54.577Z,52.20
2022-11-07T14:08:32.586Z,52.21
2022-11-07T14:10:59.556Z,52.32
2022-11-07T14:13:34.666Z,52.16
2022-11-07T14:16:17.233Z,52.21
2022-11-07T14:18:47.627Z,52.15
2022-11-07T14:21:42.279Z,52.27
2022-11-07T14:24:29.563Z,52.37
2022-11-07T14:27:05.132Z,52.16
2022-11-07T14:29:32.090Z,52.17
2022-11-07T14:32:04.373Z,52.36
2022-11-07T14:34:33.975Z,52.28
2022-11-07T14:37:01.625Z,51.99
2022-11-07T14:39:30.493Z,51.88
2022-11-07T14:41:58.355Z,52.09
2022-11-07T14:44:54.350Z,52.06
2022-11-07T14:47:35.092Z,52.22
2022-11-07T14:50:02.446Z,52.39
2022-11-07T14:52:38.934Z,52.24
2022-11-07T14:55:25.609Z,52.11
2022-11-07T14:57:52.398Z,52.41
2022-11-07T15:00:21.131Z,52.00
2022-11-07T15:02:49.841Z,52.04
2022-11-07T15:05:26.105Z,52.08
2022-11-07T15:07:52.917Z,52.00
2022-11-07T15:10:32.232Z,51.96
2022-11-07T15:13:02.109Z,52.10
2022-11-07T15:15:33.153Z,52.17
2022-11-07T15:18:02.016Z,52.16
2022-11-07T15:20:32.016Z,51.98
2022-11-07T15:23:19.860Z,52.24
2022-11-07T15:25:56.265Z,52.01
2022-11-07T15:28:27.954Z,52.36
2022-11-07T15:31:01.072Z,52.01
2022-11-07T15:33:30.762Z,52.21
2022-11-07T15:36:00.035Z,52.26
2022-11-07T15:38:28.511Z,52.19
2022-11-07T15:40:55.212Z,52.11
2022-11-07T15:43:21.882Z,52.16
2022-11-07T15:45:49.651Z,52.30
2022-11-07T15:48:19.174Z,52.08
2022-11-07T15:50:47.342Z,52.11
2022-11-07T15:53:28.116Z,51.85
2022-11-07T15:55:59.589Z,52.31
2022-11-07T15:58:28.045Z,52.44
2022-11-07T16:00:55.417Z,52.39
2022-11-07T16:03:24.229Z,52.17
2022-11-07T16:05:52.444Z,52.28
2022-11-07T16:08:23.960Z,51.82
2022-11-07T16:10:53.790Z,52.42
2022-11-07T16:13:20.649Z,52.18
2022-11-07T16:15:50.610Z,52.13
2022-11-07T16:18:20.201Z,52.09
2022-11-07T16:20:48.255Z,51.92
2022-11-07T16:23:16.102Z,51.77
2022-11-07T16:25:44.772Z,51.96
2022-11-07T16:28:26.713Z,51.94
2022-11-07T16:30:53.731Z,51.79
2022-11-07T16:33:20.399Z,52.00
2022-11-07T16:35:54.412Z,51.97
2022-11-07T16:38:23.213Z,51.84
2022-11-07T16:40:50.094Z,51.96
2022-11-07T16:43:16.695Z,52.06
2022-11-07T16:45:48.144Z,52.05
2022-11-07T16:48:32.563Z,52.00
2022-11-07T16:50:59.187Z,51.97
2022-11-07T16:53:26.043Z,51.78
2022-11-07T16:55:56.313Z,52.26
2022-11-07T16:58:24.281Z,51.77
2022-11-07T17:00:51.218Z,51.98
2022-11-07T17:03:18.503Z,52.10
2022-11-07T17:05:45.867Z,51.84
2022-11-07T17:08:21.258Z,51.77
2022-11-07T17:10:48.077Z,52.10
2022-11-07T17:13:14.717Z,51.89
2022-11-07T17:15:41.849Z,51.87
2022-11-07T17:18:25.350Z,52.04
2022-11-07T17:20:53.798Z,51.76
2022-11-07T17:23:26.850Z,51.71
2022-11-07T17:25:57.060Z,51.73
2022-11-07T17:28:23.597Z,51.68
2022-11-07T17:30:50.210Z,51.75
2022-11-07T17:33:16.858Z,51.92
2022-11-07T17:35:43.462Z,51.91
2022-11-07T17:38:16.393Z,51.65
2022-11-07T17:40:43.405Z,51.84
2022-11-07T17:43:09.947Z,52.02
2022-11-07T17:45:36.709Z,51.95
2022-11-07T17:48:03.514Z,51.71
2022-11-07T17:50:30.072Z,51.99
2022-11-07T17:52:56.681Z,51.68
2022-11-07T17:55:24.686Z,52.02
2022-11-07T17:57:51.410Z,52.11
2022-11-07T18:00:20.989Z,51.71
2022-11-07T18:02:49.635Z,52.03
2022-11-07T18:05:17.563Z,51.68
2022-11-07T18:07:44.780Z,51.83
2022-11-07T18:10:12.964Z,51.79
2022-11-07T18:12:39.544Z,51.95
2022-11-07T18:15:06.512Z,51.89
2022-11-07T18:17:35.487Z,51.85
2022-11-07T18:20:04.048Z,51.68
2022-11-07T18:22:30.626Z,51.75
2022-11-07T18:24:57.308Z,51.55
2022-11-07T18:27:23.865Z,51.66
2022-11-07T18:29:50.510Z,51.80
2022-11-07T18:32:17.514Z,51.68
2022-11-07T18:34:44.097Z,51.80
2022-11-07T18:37:10.741Z,51.71
2022-11-07T18:39:37.354Z,51.90
2022-11-07T18:42:03.977Z,51.75
2022-11-07T18:44:30.556Z,52.09
2022-11-07T18:46:57.121Z,51.97
2022-11-07T18:49:24.486Z,52.00
2022-11-07T18:51:51.081Z,51.74
2022-11-07T18:54:17.658Z,51.94
2022-11-07T18:56:44.290Z,52.19
2022-11-07T18:59:11.096Z,51.89
2022-11-07T19:01:37.822Z,51.87
2022-11-07T19:04:05.898Z,52.29
2022-11-07T19:06:33.042Z,52.66
2022-11-07T19:08:59.592Z,53.64
2022-11-07T19:11:31.253Z,53.25
2022-11-07T19:14:01.171Z,53.67
2022-11-07T19:16:28.152Z,53.68
2022-11-07T19:18:54.712Z,53.56
2022-11-07T19:21:23.368Z,53.92
2022-11-07T19:23:50.377Z,54.22
2022-11-07T19:26:19.123Z,53.43
2022-11-07T19:28:46.480Z,53.48
2022-11-07T19:31:13.224Z,53.93
2022-11-07T19:33:41.179Z,53.62
2022-11-07T19:36:12.594Z,53.99
2022-11-07T19:38:39.195Z,53.93
2022-11-07T19:41:06.992Z,53.76
2022-11-07T19:43:34.260Z,53.78
2022-11-07T19:46:09.017Z,53.89
2022-11-07T19:48:35.553Z,54.15
2022-11-07T19:51:09.307Z,54.47
2022-11-07T19:53:35.850Z,54.88
2022-11-07T19:56:11.558Z,54.96
2022-11-07T19:58:38.873Z,55.19
2022-11-07T20:01:19.555Z,55.41
2022-11-07T20:03:47.899Z,55.45
2022-11-07T20:06:16.594Z,55.37
2022-11-07T20:08:45.477Z,55.25
2022-11-07T20:11:17.949Z,55.18
2022-11-07T20:13:44.607Z,55.31
2022-11-07T20:16:11.377Z,55.03
2022-11-07T20:18:38.897Z,54.67
2022-11-07T20:21:08.172Z,54.88
2022-11-07T20:23:34.781Z,55.18
2022-11-07T20:26:05.585Z,54.81
2022-11-07T20:28:32.142Z,54.83
2022-11-07T20:30:58.694Z,54.77
2022-11-07T20:33:25.318Z,54.65
2022-11-07T20:36:02.904Z,54.56
2022-11-07T20:38:29.854Z,54.19
2022-11-07T20:40:56.723Z,54.33
2022-11-07T20:43:23.838Z,54.56
2022-11-07T20:45:50.598Z,54.41
2022-11-07T20:48:17.877Z,54.25
2022-11-07T20:50:44.855Z,54.19
2022-11-07T20:53:11.664Z,54.42
2022-11-07T20:55:42.677Z,54.42
2022-11-07T20:58:10.358Z,54.77
2022-11-07T21:00:38.891Z,54.58
2022-11-07T21:03:06.128Z,54.76
2022-11-07T21:05:32.976Z,54.79
2022-11-07T21:07:59.513Z,54.44
2022-11-07T21:10:26.064Z,54.53
2022-11-07T21:12:52.649Z,54.62
2022-11-07T21:15:19.241Z,54.77
2022-11-07T21:17:45.826Z,54.97
2022-11-07T21:20:12.410Z,54.55
2022-11-07T21:22:39.436Z,54.53
2022-11-07T21:25:06.891Z,54.50
2022-11-07T21:27:37.730Z,54.17
2022-11-07T21:30:05.625Z,54.14
2022-11-07T21:32:33.077Z,53.69
2022-11-07T21:34:59.659Z,53.66
2022-11-07T21:37:27.411Z,53.73
2022-11-07T21:39:53.998Z,53.71
2022-11-07T21:42:20.546Z,53.93
2022-11-07T21:44:47.161Z,53.72
2022-11-07T21:47:13.713Z,53.46
2022-11-07T21:49:40.258Z,53.57
2022-11-07T21:52:06.798Z,53.42
2022-11-07T21:54:33.346Z,53.43
2022-11-07T21:57:00.331Z,53.35
2022-11-07T21:59:27.076Z,53.27
2022-11-07T22:01:54.991Z,53.37
2022-11-07T22:04:21.670Z,53.20
2022-11-07T22:06:48.280Z,53.02
2022-11-07T22:09:19.819Z,53.18
2022-11-07T22:11:47.302Z,53.18
2022-11-07T22:14:15.845Z,53.04
2022-11-07T22:16:42.536Z,53.29
2022-11-07T22:19:12.460Z,53.33
2022-11-07T22:21:40.391Z,53.22
2022-11-07T22:24:07.264Z,53.13
2022-11-07T22:26:33.886Z,53.03
2022-11-07T22:29:00.457Z,53.18
2022-11-07T22:31:30.278Z,52.82
2022-11-07T22:33:58.654Z,53.24
2022-11-07T22:36:25.473Z,53.23
2022-11-07T22:38:52.041Z,53.18
2022-11-07T22:41:21.106Z,53.00
2022-11-07T22:43:48.162Z,52.94
2022-11-07T22:46:16.936Z,52.81
2022-11-07T22:48:44.721Z,53.08
2022-11-07T22:51:13.800Z,52.76
2022-11-07T22:53:40.761Z,52.84
2022-11-07T22:56:12.375Z,52.68
2022-11-07T22:58:39.253Z,52.81
2022-11-07T23:01:07.334Z,53.10
2022-11-07T23:03:33.914Z,53.16
2022-11-07T23:06:04.680Z,52.88
2022-11-07T23:08:33.469Z,52.78
2022-11-07T23:11:40.546Z,52.72
2022-11-07T23:14:00.396Z,52.78
2022-11-07T23:16:32.801Z,53.14
2022-11-07T23:19:01.644Z,53.02
2022-11-07T23:21:28.505Z,52.66
2022-11-07T23:23:57.560Z,53.18
2022-11-07T23:26:25.605Z,52.73
2022-11-07T23:28:52.372Z,52.86
2022-11-07T23:31:19.175Z,52.70
2022-11-07T23:33:45.805Z,53.12
2022-11-07T23:36:16.496Z,52.87
2022-11-07T23:38:43.806Z,52.61
2022-11-07T23:41:13.042Z,52.94
2022-11-07T23:43:39.695Z,52.86
2022-11-07T23:46:25.077Z,52.57
2022-11-07T23:49:14.337Z,52.78
2022-11-07T23:51:42.019Z,52.86
2022-11-07T23:54:27.173Z,52.60
2022-11-07T23:56:53.891Z,53.03
2022-11-07T23:59:49.933Z,52.72
